Flight Track Log - Related Links

Times and Time Zones

All times are in EDT time to prevent confusion due to time zone crossing. See the KAP2826 flight status page for this flight to view local times or setup timezone preferences in your user account.

Time Position Orientation Groundspeed Altitude Reporting Facility
EDT Latitude Longitude Course Direction KTS MPH feet Rate Location/Type
Mon 11:11:00 AM 41.3677 -70.1464 331° Northwest  Level FlightAware Approximate
Mon 11:12:00 AM 41.3868 -70.1608 331° Northwest  Level FlightAware Approximate
Mon 11:13:00 AM 41.4059 -70.1752 331° Northwest  Level FlightAware Approximate
Mon 11:14:00 AM 41.4190 -70.1857 323° Northwest  Level FlightAware Approximate
Mon 11:15:00 AM 41.4366 -70.2032 323° Northwest  Level FlightAware Approximate
Mon 11:16:00 AM 41.4544 -70.2201 330° Northwest  Level FlightAware Approximate
Mon 11:17:00 AM 41.4734 -70.2347 330° Northwest  Level FlightAware Approximate
Mon 11:18:00 AM 41.4924 -70.2494 330° Northwest  Level FlightAware Approximate
Mon 11:19:00 AM 41.5114 -70.2641 330° Northwest  Level FlightAware Approximate
Mon 11:20:00 AM 41.5303 -70.2787 330° Northwest  Level FlightAware Approximate
Mon 11:21:00 AM 41.5493 -70.2934 330° Northwest  Level FlightAware Approximate
Mon 11:22:00 AM 41.5683 -70.3081 330° Northwest  Level FlightAware Approximate
Mon 11:23:00 AM 41.5873 -70.3228 330° Northwest  Level FlightAware Approximate
Mon 11:24:00 AM 41.6062 -70.3375 330° Northwest  Level FlightAware Approximate
Mon 11:24:21 AM 41.8500 -70.6167 330° Northwest 183 211 5,900  Level KA90
Mon 11:25:00 AM 41.6252 -70.3522 330° Northwest  Level FlightAware Approximate
Mon 11:25:21 AM 41.8833 -70.6500 323° Northwest 184 212 5,900  Level KA90
Mon 11:26:00 AM 41.6442 -70.3670 330° Northwest  Level FlightAware Approximate
Mon 11:27:00 AM 41.6631 -70.3817 330° Northwest  Level FlightAware Approximate
Mon 11:27:15 AM 41.9667 -70.7167 329° Northwest 182 209 5,900  Level KA90
Mon 11:28:00 AM 41.6821 -70.3965 330° Northwest  Level FlightAware Approximate
Mon 11:28:15 AM 42.0167 -70.7500 334° Northwest 180 207 5,900  Level KA90
Mon 11:29:00 AM 41.7010 -70.4112 330° Northwest  Level FlightAware Approximate
Mon 11:29:15 AM 42.0500 -70.7833 323° Northwest 179 206 5,900  Level KA90
Mon 11:31:00 AM 42.0884 -70.7833 North  Level FlightAware Approximate
Mon 11:33:21 AM 42.2500 -70.8833 328° Northwest 178 205 5,900  Level KA90
Mon 11:35:15 AM 42.3333 -70.9333 336° Northwest 179 206 5,900  Level KA90
Mon 11:37:00 AM 42.3518 -70.9788 324° Northwest  Level Estimated
Mon 11:37:15 AM 42.4333 -70.9833 324° Northwest 180 207 5,900  Level KA90
Mon 11:38:00 AM 42.2200 -70.8899 328° Northwest  Level Estimated
Mon 11:38:15 AM 42.4667 -71.0167 324° Northwest 178 205 5,700  Level KA90
Mon 11:39:21 AM 42.5167 -71.0667 324° Northwest 191 220 4,900 -797 Descending KA90
Mon 11:40:23 AM 42.5000 -71.1167 246° West 178 205 4,000 -1,046 Descending KA90
Mon 11:42:00 AM 42.4402 -71.0701 150° Southeast  Level FlightAware Approximate
Mon 11:43:22 AM 42.3833 -71.0333 150° Southeast 134 154 700  Level KA90
Mon 11:45:00 AM 42.3630 -71.0064 174° South  Level Estimated
Mon 11:52:00 AM 42.3630 -71.0064 174° South  Level Estimated

Login

Don't have an account? Register now (free) for customized features, flight alerts, and more!